createdAt,value
2018-05-21T00:00:07.514Z,15.39
2018-05-21T00:01:07.437Z,15.31
2018-05-21T00:02:07.384Z,15.31
2018-05-21T00:03:07.314Z,15.32
2018-05-21T00:04:07.234Z,15.28
2018-05-21T00:05:07.156Z,15.29
2018-05-21T00:06:07.092Z,15.28
2018-05-21T00:07:07.016Z,15.25
2018-05-21T00:08:06.944Z,15.23
2018-05-21T00:09:06.872Z,15.21
2018-05-21T00:10:06.809Z,15.27
2018-05-21T00:11:06.719Z,15.19
2018-05-21T00:12:06.659Z,15.25
2018-05-21T00:13:06.579Z,15.17
2018-05-21T00:14:06.509Z,15.11
2018-05-21T00:15:06.442Z,15.07
2018-05-21T00:16:06.372Z,15.07
2018-05-21T00:17:06.299Z,14.98
2018-05-21T00:18:06.221Z,15.03
2018-05-21T00:19:06.155Z,15.03
2018-05-21T00:20:06.082Z,15.06
2018-05-21T00:21:06.012Z,15.13
2018-05-21T00:22:05.938Z,15.07
2018-05-21T00:23:05.904Z,15.11
2018-05-21T00:24:05.792Z,15.07
2018-05-21T00:25:05.728Z,15.07
2018-05-21T00:26:05.651Z,15.03
2018-05-21T00:27:05.577Z,14.96
2018-05-21T00:28:05.522Z,15.03
2018-05-21T00:29:05.434Z,15.07
2018-05-21T00:30:05.361Z,15.09
2018-05-21T00:31:05.381Z,15.09
2018-05-21T00:32:05.221Z,15.02
2018-05-21T00:33:05.149Z,15.06
2018-05-21T00:34:05.073Z,14.96
2018-05-21T00:35:05.003Z,15.02
2018-05-21T00:36:04.928Z,14.99
2018-05-21T00:37:04.857Z,15.06
2018-05-21T00:38:04.793Z,15.07
2018-05-21T00:39:04.714Z,15.02
2018-05-21T00:40:04.648Z,15.09
2018-05-21T00:41:04.572Z,14.96
2018-05-21T00:42:04.493Z,15.10
2018-05-21T00:43:04.432Z,15.06
2018-05-21T00:44:04.353Z,15.06
2018-05-21T00:45:04.285Z,15.06
2018-05-21T00:46:04.215Z,14.98
2018-05-21T00:47:04.140Z,14.86
2018-05-21T00:48:04.065Z,14.92
2018-05-21T00:49:03.996Z,14.89
2018-05-21T00:50:03.923Z,14.92
2018-05-21T00:51:03.847Z,14.99
2018-05-21T00:52:03.781Z,15.13
2018-05-21T00:53:03.707Z,15.10
2018-05-21T00:54:03.633Z,15.11
2018-05-21T00:55:03.563Z,14.99
2018-05-21T00:56:03.496Z,15.02
2018-05-21T00:57:03.421Z,14.98
2018-05-21T00:58:03.360Z,14.92
2018-05-21T00:59:03.276Z,14.83
2018-05-21T01:00:03.204Z,14.95
2018-05-21T01:01:03.164Z,14.89
2018-05-21T01:02:03.061Z,14.78
2018-05-21T01:03:03.000Z,14.83
2018-05-21T01:04:02.911Z,14.92
2018-05-21T01:05:02.850Z,14.88
2018-05-21T01:06:02.771Z,15.02
2018-05-21T01:07:02.709Z,15.03
2018-05-21T01:08:02.633Z,15.03
2018-05-21T01:09:02.548Z,15.07
2018-05-21T01:10:02.498Z,15.20
2018-05-21T01:11:02.415Z,15.14
2018-05-21T01:12:02.337Z,15.06
2018-05-21T01:13:02.304Z,15.13
2018-05-21T01:14:02.192Z,15.10
2018-05-21T01:15:02.124Z,15.02
2018-05-21T01:16:02.058Z,15.01
2018-05-21T01:17:01.980Z,15.01
2018-05-21T01:18:01.908Z,14.94
2018-05-21T01:19:01.835Z,14.96
2018-05-21T01:20:01.781Z,14.92
2018-05-21T01:21:01.711Z,14.94
2018-05-21T01:22:01.628Z,14.88
2018-05-21T01:23:01.551Z,14.96
2018-05-21T01:24:01.475Z,14.88
2018-05-21T01:25:01.407Z,14.91
2018-05-21T01:26:01.330Z,14.92
2018-05-21T01:27:01.262Z,14.91
2018-05-21T01:28:01.188Z,15.07
2018-05-21T01:29:01.116Z,15.13
2018-05-21T01:30:01.042Z,15.17
2018-05-21T01:31:00.974Z,15.17
2018-05-21T01:32:00.904Z,15.19
2018-05-21T01:33:00.829Z,15.27
2018-05-21T01:34:00.752Z,15.27
2018-05-21T01:35:00.686Z,15.32
2018-05-21T01:36:00.617Z,15.21
2018-05-21T01:37:00.539Z,15.20
2018-05-21T01:38:00.469Z,15.17
2018-05-21T01:39:00.396Z,15.14
2018-05-21T01:40:00.327Z,15.07
2018-05-21T01:41:00.269Z,15.02
2018-05-21T01:42:00.183Z,14.99
2018-05-21T01:43:00.109Z,14.94
2018-05-21T01:44:00.036Z,14.92
2018-05-21T01:44:59.974Z,14.81
2018-05-21T01:45:59.894Z,14.86
2018-05-21T01:46:59.820Z,15.02
2018-05-21T01:47:59.748Z,14.96
2018-05-21T01:48:59.693Z,15.07
2018-05-21T01:49:59.603Z,15.14
2018-05-21T01:50:59.530Z,15.13
2018-05-21T01:51:59.459Z,15.11
2018-05-21T01:52:59.397Z,15.17
2018-05-21T01:53:59.316Z,15.17
2018-05-21T01:54:59.260Z,15.14
2018-05-21T01:55:59.184Z,15.07
2018-05-21T01:56:59.105Z,15.07
2018-05-21T01:57:59.878Z,15.01
2018-05-21T01:58:58.960Z,14.98
2018-05-21T01:59:58.889Z,14.91
2018-05-21T02:00:58.813Z,14.94
2018-05-21T02:01:58.746Z,14.95
2018-05-21T02:02:58.671Z,15.01
2018-05-21T02:03:58.600Z,15.03
2018-05-21T02:04:58.546Z,14.88
2018-05-21T02:05:58.456Z,14.94
2018-05-21T02:06:58.390Z,14.89
2018-05-21T02:07:58.314Z,14.88
2018-05-21T02:08:58.241Z,14.92
2018-05-21T02:09:58.167Z,14.83
2018-05-21T02:10:58.105Z,14.94
2018-05-21T02:11:58.025Z,14.88
2018-05-21T02:12:57.953Z,14.94
2018-05-21T02:13:57.873Z,14.88
2018-05-21T02:14:57.811Z,14.96
2018-05-21T02:15:57.780Z,14.91
2018-05-21T02:16:57.696Z,14.89
2018-05-21T02:17:57.619Z,14.86
2018-05-21T02:18:57.563Z,14.91
2018-05-21T02:19:57.541Z,14.83
2018-05-21T02:20:57.376Z,14.75
2018-05-21T02:21:57.310Z,14.81
2018-05-21T02:22:57.228Z,14.83
2018-05-21T02:23:57.163Z,14.84
2018-05-21T02:24:57.103Z,14.73
2018-05-21T02:25:57.015Z,14.75
2018-05-21T02:26:57.059Z,14.73
2018-05-21T02:27:56.872Z,14.65
2018-05-21T02:28:56.805Z,14.64
2018-05-21T02:29:56.728Z,14.77
2018-05-21T02:30:56.661Z,14.75
2018-05-21T02:31:56.582Z,14.80
2018-05-21T02:32:56.518Z,14.69
2018-05-21T02:33:56.441Z,14.68
2018-05-21T02:34:56.368Z,14.78
2018-05-21T02:35:56.293Z,14.69
2018-05-21T02:36:56.292Z,14.81
2018-05-21T02:37:56.156Z,14.68
2018-05-21T02:38:56.078Z,14.70
2018-05-21T02:39:56.008Z,14.55
2018-05-21T02:40:55.934Z,14.55
2018-05-21T02:41:55.866Z,14.54
2018-05-21T02:42:55.794Z,14.54
2018-05-21T02:43:55.719Z,14.58
2018-05-21T02:44:55.647Z,14.57
2018-05-21T02:45:55.568Z,14.55
2018-05-21T02:46:55.510Z,14.60
2018-05-21T02:47:55.430Z,14.52
2018-05-21T02:48:55.369Z,14.51
2018-05-21T02:49:55.286Z,14.54
2018-05-21T02:50:55.229Z,14.54
2018-05-21T02:51:55.141Z,14.54
2018-05-21T02:52:55.079Z,14.50
2018-05-21T02:53:55.002Z,14.50
2018-05-21T02:54:54.931Z,14.54
2018-05-21T02:55:54.853Z,14.52
2018-05-21T02:56:54.781Z,14.50
2018-05-21T02:57:54.705Z,14.45
2018-05-21T02:58:54.644Z,14.47
2018-05-21T02:59:54.569Z,14.51
2018-05-21T03:00:54.492Z,14.47
2018-05-21T03:01:54.420Z,14.47
2018-05-21T03:02:54.345Z,14.46
2018-05-21T03:03:54.281Z,14.27
2018-05-21T03:04:54.212Z,14.32
2018-05-21T03:05:54.146Z,14.33
2018-05-21T03:06:54.062Z,14.32
2018-05-21T03:07:53.997Z,14.29
2018-05-21T03:08:53.922Z,14.29
2018-05-21T03:09:53.844Z,14.29
2018-05-21T03:10:53.793Z,14.27
2018-05-21T03:11:53.704Z,14.25
2018-05-21T03:12:53.630Z,14.36
2018-05-21T03:13:53.558Z,14.28
2018-05-21T03:14:53.503Z,14.37
2018-05-21T03:15:53.411Z,14.33
2018-05-21T03:16:53.341Z,14.40
2018-05-21T03:17:53.267Z,14.46
2018-05-21T03:18:53.185Z,14.40
2018-05-21T03:19:53.114Z,14.47
2018-05-21T03:20:53.051Z,14.45
2018-05-21T03:21:52.979Z,14.43
2018-05-21T03:22:52.895Z,14.43
2018-05-21T03:23:52.825Z,14.50
2018-05-21T03:24:52.763Z,14.40
2018-05-21T03:25:52.687Z,14.43
2018-05-21T03:26:52.622Z,14.45
2018-05-21T03:27:52.571Z,14.46
2018-05-21T03:28:52.474Z,14.47
2018-05-21T03:29:52.410Z,14.39
2018-05-21T03:30:52.326Z,14.40
2018-05-21T03:31:52.259Z,14.50
2018-05-21T03:32:52.183Z,14.45
2018-05-21T03:33:52.109Z,14.43
2018-05-21T03:34:52.040Z,14.45
2018-05-21T03:35:51.962Z,14.52
2018-05-21T03:36:51.890Z,14.43
2018-05-21T03:37:51.860Z,14.40
2018-05-21T03:38:51.740Z,14.45
2018-05-21T03:39:51.673Z,14.40
2018-05-21T03:40:51.601Z,14.33
2018-05-21T03:41:51.531Z,14.39
2018-05-21T03:42:51.454Z,14.37
2018-05-21T03:43:51.386Z,14.33
2018-05-21T03:44:51.313Z,14.33
2018-05-21T03:45:51.236Z,14.42
2018-05-21T03:46:51.168Z,14.51
2018-05-21T03:47:51.088Z,14.47
2018-05-21T03:48:51.025Z,14.52
2018-05-21T03:49:50.952Z,14.40
2018-05-21T03:50:50.882Z,14.47
2018-05-21T03:51:50.806Z,14.55
2018-05-21T03:52:50.739Z,14.52
2018-05-21T03:53:50.660Z,14.52
2018-05-21T03:54:50.617Z,14.57
2018-05-21T03:55:50.518Z,14.51
2018-05-21T03:56:50.444Z,14.43
2018-05-21T03:57:50.372Z,14.54
2018-05-21T03:58:50.302Z,14.54
2018-05-21T03:59:50.241Z,14.51
2018-05-21T04:00:50.154Z,14.47
2018-05-21T04:01:50.099Z,14.51
2018-05-21T04:02:50.011Z,14.60
2018-05-21T04:03:49.939Z,14.61
2018-05-21T04:04:49.871Z,14.55
2018-05-21T04:05:49.797Z,14.51
2018-05-21T04:06:49.723Z,14.54
2018-05-21T04:07:49.651Z,14.54
2018-05-21T04:08:49.579Z,14.51
2018-05-21T04:09:49.501Z,14.47
2018-05-21T04:10:49.460Z,14.54
2018-05-21T04:11:49.370Z,14.43
2018-05-21T04:12:49.305Z,14.50
2018-05-21T04:13:49.216Z,14.55
2018-05-21T04:14:49.149Z,14.55
2018-05-21T04:15:49.073Z,14.54
2018-05-21T04:16:49.000Z,14.65
2018-05-21T04:17:48.931Z,14.68
2018-05-21T04:18:48.937Z,14.68
2018-05-21T04:19:48.789Z,14.77
2018-05-21T04:20:48.712Z,14.68
2018-05-21T04:21:48.640Z,14.77
2018-05-21T04:22:48.569Z,14.81
2018-05-21T04:23:48.495Z,14.75
2018-05-21T04:24:48.421Z,14.78
2018-05-21T04:25:48.352Z,14.80
2018-05-21T04:26:48.276Z,14.83
2018-05-21T04:27:48.201Z,14.88
2018-05-21T04:28:48.137Z,14.88
2018-05-21T04:29:48.061Z,15.02
2018-05-21T04:30:47.996Z,14.99
2018-05-21T04:31:47.918Z,15.03
2018-05-21T04:32:47.856Z,15.03
2018-05-21T04:33:47.772Z,14.98
2018-05-21T04:34:47.702Z,15.09
2018-05-21T04:35:47.629Z,15.07
2018-05-21T04:36:47.558Z,15.09
2018-05-21T04:37:47.486Z,15.16
2018-05-21T04:38:47.416Z,15.17
2018-05-21T04:39:47.355Z,15.25
2018-05-21T04:40:47.268Z,15.25
2018-05-21T04:41:47.205Z,15.25
2018-05-21T04:42:47.122Z,15.25
2018-05-21T04:43:47.053Z,15.28
2018-05-21T04:44:46.979Z,15.34
2018-05-21T04:45:46.908Z,15.35
2018-05-21T04:46:46.841Z,15.31
2018-05-21T04:47:46.763Z,15.28
2018-05-21T04:48:46.699Z,15.25
2018-05-21T04:49:46.625Z,15.23
2018-05-21T04:50:46.553Z,15.35
2018-05-21T04:51:46.562Z,15.31
2018-05-21T04:52:46.406Z,15.46
2018-05-21T04:53:46.356Z,15.36
2018-05-21T04:54:46.267Z,15.43
2018-05-21T04:55:46.190Z,15.46
2018-05-21T04:56:46.116Z,15.41
2018-05-21T04:57:46.048Z,15.49
2018-05-21T04:58:45.969Z,15.47
2018-05-21T04:59:45.903Z,15.46
2018-05-21T05:00:45.829Z,15.38
2018-05-21T05:01:45.759Z,15.41
2018-05-21T05:02:45.686Z,15.27
2018-05-21T05:03:45.619Z,15.28
2018-05-21T05:04:45.544Z,15.36
2018-05-21T05:05:45.468Z,15.27
2018-05-21T05:06:45.397Z,15.28
2018-05-21T05:07:45.325Z,15.27
2018-05-21T05:08:45.263Z,15.29
2018-05-21T05:09:45.212Z,15.43
2018-05-21T05:10:45.140Z,15.43
2018-05-21T05:11:45.041Z,15.50
2018-05-21T05:12:44.970Z,15.47
2018-05-21T05:13:44.896Z,15.56
2018-05-21T05:14:44.829Z,15.60
2018-05-21T05:15:44.747Z,15.60
2018-05-21T05:16:44.682Z,15.46
2018-05-21T05:17:44.615Z,15.60
2018-05-21T05:18:44.534Z,15.57
2018-05-21T05:19:44.471Z,15.62
2018-05-21T05:20:44.411Z,15.67
2018-05-21T05:21:44.325Z,15.71
2018-05-21T05:22:44.248Z,15.68
2018-05-21T05:23:44.175Z,15.74
2018-05-21T05:24:44.111Z,15.74
2018-05-21T05:25:44.044Z,15.80
2018-05-21T05:26:44.032Z,15.78
2018-05-21T05:27:43.888Z,15.83
2018-05-21T05:28:43.829Z,15.78
2018-05-21T05:29:43.748Z,15.78
2018-05-21T05:30:43.686Z,15.76
2018-05-21T05:31:43.603Z,15.76
2018-05-21T05:32:43.536Z,15.78
2018-05-21T05:33:43.452Z,15.78
2018-05-21T05:34:43.389Z,15.82
2018-05-21T05:35:43.314Z,15.84
2018-05-21T05:36:43.255Z,15.92
2018-05-21T05:37:43.170Z,15.80
2018-05-21T05:38:43.104Z,15.90
2018-05-21T05:39:43.022Z,15.90
2018-05-21T05:40:42.965Z,15.84
2018-05-21T05:41:42.881Z,15.86
2018-05-21T05:42:42.808Z,15.92
2018-05-21T05:43:42.744Z,15.92
2018-05-21T05:44:42.682Z,15.90
2018-05-21T05:45:42.599Z,16.04
2018-05-21T05:46:42.528Z,15.97
2018-05-21T05:47:42.451Z,16.15
2018-05-21T05:48:42.422Z,16.14
2018-05-21T05:49:42.316Z,16.17
2018-05-21T05:50:42.238Z,16.31
2018-05-21T05:51:42.173Z,16.38
2018-05-21T05:52:42.183Z,16.48
2018-05-21T05:53:42.035Z,16.66
2018-05-21T05:54:41.954Z,16.71
2018-05-21T05:55:41.885Z,16.66
2018-05-21T05:56:41.812Z,16.94
2018-05-21T05:57:41.737Z,16.97
2018-05-21T05:58:41.668Z,17.01
2018-05-21T05:59:41.599Z,17.03
2018-05-21T06:00:41.525Z,17.18
2018-05-21T06:01:41.454Z,17.26
2018-05-21T06:02:41.384Z,17.31
2018-05-21T06:03:41.392Z,17.28
2018-05-21T06:04:41.238Z,17.23
2018-05-21T06:05:41.166Z,17.41
2018-05-21T06:06:41.132Z,17.36
2018-05-21T06:07:41.050Z,17.52
2018-05-21T06:08:41.019Z,17.41
2018-05-21T06:09:40.883Z,17.37
2018-05-21T06:10:40.811Z,17.31
2018-05-21T06:11:40.742Z,17.18
2018-05-21T06:12:40.669Z,17.26
2018-05-21T06:13:40.652Z,17.25
2018-05-21T06:14:40.528Z,17.33
2018-05-21T06:15:40.453Z,17.43
2018-05-21T06:16:40.394Z,17.46
2018-05-21T06:17:40.314Z,17.55
2018-05-21T06:18:40.246Z,17.51
2018-05-21T06:19:40.206Z,17.63
2018-05-21T06:20:40.111Z,17.64
2018-05-21T06:21:40.043Z,17.72
2018-05-21T06:22:39.969Z,17.79
2018-05-21T06:23:39.886Z,17.89
2018-05-21T06:24:39.818Z,17.92
2018-05-21T06:25:39.751Z,17.89
2018-05-21T06:26:39.687Z,17.97
2018-05-21T06:27:39.611Z,17.99
2018-05-21T06:28:39.539Z,18.07
2018-05-21T06:29:39.469Z,18.15
2018-05-21T06:30:39.406Z,18.18
2018-05-21T06:31:39.329Z,18.26
2018-05-21T06:32:39.257Z,18.29
2018-05-21T06:33:39.188Z,18.20
2018-05-21T06:34:39.222Z,18.37
2018-05-21T06:35:39.043Z,18.32
2018-05-21T06:36:39.014Z,18.41
2018-05-21T06:37:38.907Z,18.52
2018-05-21T06:38:38.839Z,18.45
2018-05-21T06:39:38.767Z,18.55
2018-05-21T06:40:38.693Z,18.55
2018-05-21T06:41:38.631Z,18.67
2018-05-21T06:42:38.556Z,18.69
2018-05-21T06:43:38.480Z,18.58
2018-05-21T06:44:38.416Z,18.66
2018-05-21T06:45:38.339Z,18.76
2018-05-21T06:46:38.273Z,18.78
2018-05-21T06:47:38.273Z,18.84
2018-05-21T06:48:38.131Z,18.90
2018-05-21T06:49:38.059Z,18.99
2018-05-21T06:50:37.993Z,19.00
2018-05-21T06:51:37.926Z,18.99
2018-05-21T06:52:37.852Z,19.11
2018-05-21T06:53:37.778Z,19.18
2018-05-21T06:54:37.711Z,19.21
2018-05-21T06:55:37.644Z,19.25
2018-05-21T06:56:37.585Z,19.28
2018-05-21T06:57:37.502Z,19.40
2018-05-21T06:58:37.438Z,19.39
2018-05-21T06:59:37.361Z,19.40
2018-05-21T07:00:37.295Z,19.41
2018-05-21T07:01:37.219Z,19.51
2018-05-21T07:02:37.150Z,19.46
2018-05-21T07:03:37.075Z,19.54
2018-05-21T07:04:37.015Z,19.55
2018-05-21T07:05:36.939Z,19.56
2018-05-21T07:06:36.869Z,19.56
2018-05-21T07:07:36.807Z,19.51
2018-05-21T07:08:36.727Z,19.55
2018-05-21T07:09:36.659Z,19.61
2018-05-21T07:10:36.595Z,19.63
2018-05-21T07:11:36.527Z,19.61
2018-05-21T07:12:36.457Z,19.66
2018-05-21T07:13:36.387Z,19.74
2018-05-21T07:14:36.312Z,19.77
2018-05-21T07:15:36.241Z,19.84
2018-05-21T07:16:36.182Z,19.87
2018-05-21T07:17:36.101Z,19.95
2018-05-21T07:18:36.034Z,19.84
2018-05-21T07:19:35.967Z,20.05
2018-05-21T07:20:35.901Z,20.02
2018-05-21T07:21:35.821Z,20.01
2018-05-21T07:22:35.757Z,20.06
2018-05-21T07:23:35.687Z,20.16
2018-05-21T07:24:35.621Z,20.13
2018-05-21T07:25:35.548Z,20.23
2018-05-21T07:26:35.483Z,20.17
2018-05-21T07:27:35.406Z,20.18
2018-05-21T07:28:35.348Z,20.18
2018-05-21T07:29:35.270Z,20.20
2018-05-21T07:30:35.206Z,20.14
2018-05-21T07:31:35.245Z,20.18
2018-05-21T07:32:35.065Z,20.24
2018-05-21T07:33:34.995Z,20.24
2018-05-21T07:34:34.929Z,20.24
2018-05-21T07:35:34.855Z,20.35
2018-05-21T07:36:34.794Z,20.38
2018-05-21T07:37:34.723Z,20.32
2018-05-21T07:38:34.649Z,20.42
2018-05-21T07:39:34.582Z,20.41
2018-05-21T07:40:34.511Z,20.50
2018-05-21T07:41:34.444Z,20.52
2018-05-21T07:42:34.375Z,20.55
2018-05-21T07:43:34.306Z,20.51
2018-05-21T07:44:34.238Z,20.57
2018-05-21T07:45:34.163Z,20.76
2018-05-21T07:46:34.101Z,20.70
2018-05-21T07:47:34.028Z,20.80
2018-05-21T07:48:33.962Z,20.82
2018-05-21T07:49:33.895Z,20.85
2018-05-21T07:50:33.819Z,20.88
2018-05-21T07:51:33.780Z,20.98
2018-05-21T07:52:33.681Z,20.95
2018-05-21T07:53:33.614Z,20.87
2018-05-21T07:54:33.547Z,20.88
2018-05-21T07:55:33.478Z,20.99
2018-05-21T07:56:33.404Z,20.97
2018-05-21T07:57:33.338Z,20.94
2018-05-21T07:58:33.270Z,21.03
2018-05-21T07:59:33.204Z,21.09
2018-05-21T08:00:33.133Z,21.17
2018-05-21T08:01:33.064Z,21.14
2018-05-21T08:02:32.996Z,21.16
2018-05-21T08:03:32.930Z,21.19
2018-05-21T08:04:32.860Z,21.22
2018-05-21T08:05:32.791Z,21.27
2018-05-21T08:06:32.720Z,21.19
2018-05-21T08:07:32.654Z,21.28
2018-05-21T08:08:32.576Z,21.28
2018-05-21T08:09:32.521Z,21.17
2018-05-21T08:10:32.447Z,21.19
2018-05-21T08:11:32.377Z,21.27
2018-05-21T08:12:32.350Z,21.25
2018-05-21T08:13:32.243Z,21.37
2018-05-21T08:14:32.218Z,21.27
2018-05-21T08:15:32.109Z,21.31
2018-05-21T08:16:32.039Z,21.42
2018-05-21T08:17:31.975Z,21.44
2018-05-21T08:18:31.902Z,21.61
2018-05-21T08:19:31.832Z,21.59
2018-05-21T08:20:31.764Z,21.67
2018-05-21T08:21:31.703Z,21.84
2018-05-21T08:22:31.625Z,21.99
2018-05-21T08:23:31.553Z,22.03
2018-05-21T08:24:31.495Z,22.03
2018-05-21T08:25:31.423Z,21.99
2018-05-21T08:26:31.364Z,22.07
2018-05-21T08:27:31.279Z,21.99
2018-05-21T08:28:31.225Z,22.07
2018-05-21T08:29:31.144Z,22.22
2018-05-21T08:30:31.085Z,22.37
2018-05-21T08:31:31.024Z,22.28
2018-05-21T08:32:30.957Z,22.33
2018-05-21T08:33:30.877Z,22.42
2018-05-21T08:34:30.813Z,22.47
2018-05-21T08:35:30.749Z,22.45
2018-05-21T08:36:30.674Z,22.46
2018-05-21T08:37:30.607Z,22.47
2018-05-21T08:38:30.543Z,22.51
2018-05-21T08:39:30.473Z,22.47
2018-05-21T08:40:30.404Z,22.61
2018-05-21T08:41:30.342Z,22.58
2018-05-21T08:42:30.267Z,22.79
2018-05-21T08:43:30.208Z,22.79
2018-05-21T08:44:30.135Z,23.00
2018-05-21T08:45:30.070Z,23.00
2018-05-21T08:46:30.000Z,23.01
2018-05-21T08:47:29.936Z,22.94
2018-05-21T08:48:29.881Z,22.75
2018-05-21T08:49:29.797Z,22.77
2018-05-21T08:50:29.730Z,22.77
2018-05-21T08:51:29.661Z,22.73
2018-05-21T08:52:29.601Z,22.80
2018-05-21T08:53:29.531Z,22.76
2018-05-21T08:54:29.464Z,22.86
2018-05-21T08:55:29.400Z,22.95
2018-05-21T08:56:29.387Z,23.07
2018-05-21T08:57:29.263Z,23.10
2018-05-21T08:58:29.195Z,22.98
2018-05-21T08:59:29.142Z,22.91
2018-05-21T09:00:29.069Z,23.00
2018-05-21T09:01:28.998Z,23.20
2018-05-21T09:02:28.932Z,23.53
2018-05-21T09:03:28.866Z,23.35
2018-05-21T09:04:28.802Z,23.39
2018-05-21T09:05:28.747Z,23.42
2018-05-21T09:06:28.666Z,23.43
2018-05-21T09:07:28.605Z,23.60
2018-05-21T09:08:28.540Z,23.80
2018-05-21T09:09:28.474Z,24.02
2018-05-21T09:10:28.428Z,23.90
2018-05-21T09:11:28.344Z,24.05
2018-05-21T09:12:28.306Z,23.94
2018-05-21T09:13:28.220Z,24.13
2018-05-21T09:14:28.150Z,24.30
2018-05-21T09:15:28.088Z,24.53
2018-05-21T09:16:28.131Z,24.68
2018-05-21T09:17:27.958Z,24.98
2018-05-21T09:18:27.895Z,25.51
2018-05-21T09:19:27.831Z,25.77
2018-05-21T09:20:27.765Z,25.94
2018-05-21T09:21:27.707Z,26.07
2018-05-21T09:22:27.647Z,26.13
2018-05-21T09:23:27.580Z,26.66
2018-05-21T09:24:27.518Z,27.03
2018-05-21T09:25:27.459Z,26.72
2018-05-21T09:26:27.399Z,26.85
2018-05-21T09:27:27.366Z,27.40
2018-05-21T09:28:27.279Z,27.24
2018-05-21T09:29:27.220Z,26.47
2018-05-21T09:30:27.163Z,26.87
2018-05-21T09:31:27.187Z,27.19
2018-05-21T09:32:27.050Z,27.72
2018-05-21T09:33:26.985Z,28.15
2018-05-21T09:34:26.939Z,28.09
2018-05-21T09:35:26.867Z,27.70
2018-05-21T09:36:26.808Z,26.62
2018-05-21T09:37:26.771Z,26.60
2018-05-21T09:38:26.695Z,26.84
2018-05-21T09:39:26.637Z,26.77
2018-05-21T09:40:26.576Z,27.82
2018-05-21T09:41:26.527Z,27.66
2018-05-21T09:42:26.476Z,27.82
2018-05-21T09:43:26.409Z,27.72
2018-05-21T09:44:26.355Z,27.70
2018-05-21T09:45:26.294Z,28.18
2018-05-21T09:46:26.239Z,28.83
2018-05-21T09:47:26.186Z,29.15
2018-05-21T09:48:26.124Z,29.33
2018-05-21T09:49:26.066Z,28.19
2018-05-21T09:50:26.011Z,27.10
2018-05-21T09:51:25.956Z,26.89
2018-05-21T09:52:25.894Z,26.57
2018-05-21T09:53:25.845Z,26.06
2018-05-21T09:54:25.786Z,25.76
2018-05-21T09:55:25.729Z,25.61
2018-05-21T09:56:25.664Z,25.61
2018-05-21T09:57:25.606Z,25.51
2018-05-21T09:58:25.547Z,25.55
2018-05-21T09:59:25.491Z,25.57
2018-05-21T10:00:25.430Z,25.45
2018-05-21T10:01:25.368Z,25.82
2018-05-21T10:02:25.306Z,26.02
2018-05-21T10:03:25.267Z,26.17
2018-05-21T10:04:25.188Z,26.07
2018-05-21T10:05:25.127Z,26.09
2018-05-21T10:06:25.068Z,25.77
2018-05-21T10:07:25.006Z,25.95
2018-05-21T10:08:24.941Z,25.43
2018-05-21T10:09:24.899Z,25.36
2018-05-21T10:10:24.820Z,25.30
2018-05-21T10:11:24.769Z,25.15
2018-05-21T10:12:24.711Z,25.18
2018-05-21T10:13:24.639Z,25.54
2018-05-21T10:14:24.574Z,26.52
2018-05-21T10:15:24.515Z,27.02
2018-05-21T10:16:24.456Z,27.55
2018-05-21T10:17:24.385Z,27.81
2018-05-21T10:18:24.333Z,28.18
2018-05-21T10:19:24.277Z,28.92
2018-05-21T10:20:24.202Z,28.73
2018-05-21T10:21:24.151Z,29.49
2018-05-21T10:22:24.085Z,29.27
2018-05-21T10:23:24.022Z,29.24
2018-05-21T10:24:23.967Z,29.80
2018-05-21T10:25:23.903Z,29.14
2018-05-21T10:26:23.879Z,28.07
2018-05-21T10:27:23.786Z,28.03
2018-05-21T10:28:23.737Z,28.30
2018-05-21T10:29:23.674Z,27.96
2018-05-21T10:30:23.616Z,28.17
2018-05-21T10:31:23.553Z,28.81
2018-05-21T10:32:23.502Z,29.12
2018-05-21T10:33:23.445Z,29.58
2018-05-21T10:34:23.382Z,29.16
2018-05-21T10:35:23.339Z,29.41
2018-05-21T10:36:23.268Z,29.43
2018-05-21T10:37:23.330Z,29.08
2018-05-21T10:38:23.154Z,29.04
2018-05-21T10:39:23.093Z,28.52
2018-05-21T10:40:23.035Z,28.03
2018-05-21T10:41:22.982Z,27.19
2018-05-21T10:42:22.924Z,26.97
2018-05-21T10:43:22.906Z,27.21
2018-05-21T10:44:22.805Z,27.46
2018-05-21T10:45:22.748Z,27.84
2018-05-21T10:46:22.685Z,27.47
2018-05-21T10:47:22.637Z,27.22
2018-05-21T10:48:22.571Z,27.24
2018-05-21T10:49:22.508Z,27.31
2018-05-21T10:50:22.462Z,27.55
2018-05-21T10:51:22.412Z,27.41
2018-05-21T10:52:22.336Z,26.88
2018-05-21T10:53:22.281Z,26.75
2018-05-21T10:54:22.207Z,27.12
2018-05-21T10:55:22.153Z,27.04
2018-05-21T10:56:22.126Z,27.21
2018-05-21T10:57:22.027Z,27.12
2018-05-21T10:58:21.969Z,27.46
2018-05-21T10:59:21.909Z,27.32
2018-05-21T11:00:21.841Z,27.49
2018-05-21T11:01:21.783Z,27.46
2018-05-21T11:02:21.742Z,27.47
2018-05-21T11:03:21.659Z,27.32
2018-05-21T11:04:21.604Z,27.57
2018-05-21T11:05:21.533Z,27.40
2018-05-21T11:06:21.469Z,27.27
2018-05-21T11:07:21.413Z,27.47
2018-05-21T11:08:21.350Z,27.69
2018-05-21T11:09:21.289Z,27.47
2018-05-21T11:10:21.244Z,27.24
2018-05-21T11:11:21.162Z,26.65
2018-05-21T11:12:21.097Z,26.51
2018-05-21T11:13:21.044Z,26.51
2018-05-21T11:14:20.979Z,26.23
2018-05-21T11:15:20.912Z,26.17
2018-05-21T11:16:20.848Z,26.07
2018-05-21T11:17:20.791Z,26.13
2018-05-21T11:18:20.721Z,26.35
2018-05-21T11:19:20.663Z,26.77
2018-05-21T11:20:20.649Z,26.77
2018-05-21T11:21:20.541Z,27.04
2018-05-21T11:22:20.478Z,26.67
2018-05-21T11:23:20.410Z,26.66
2018-05-21T11:24:20.346Z,26.88
2018-05-21T11:25:20.281Z,27.02
2018-05-21T11:26:20.229Z,27.21
2018-05-21T11:27:20.157Z,27.18
2018-05-21T11:28:20.096Z,27.51
2018-05-21T11:29:20.033Z,27.44
2018-05-21T11:30:19.975Z,27.44
2018-05-21T11:31:19.908Z,26.81
2018-05-21T11:32:19.854Z,27.06
2018-05-21T11:33:19.779Z,27.24
2018-05-21T11:34:19.720Z,26.81
2018-05-21T11:35:19.666Z,26.73
2018-05-21T11:36:19.594Z,26.21
2018-05-21T11:37:19.541Z,26.43
2018-05-21T11:38:19.487Z,26.13
2018-05-21T11:39:19.416Z,26.21
2018-05-21T11:40:19.341Z,26.43
2018-05-21T11:41:19.288Z,26.35
2018-05-21T11:42:19.216Z,26.52
2018-05-21T11:43:19.161Z,26.54
2018-05-21T11:44:19.090Z,26.62
2018-05-21T11:45:19.034Z,26.72
2018-05-21T11:46:19.058Z,26.47
2018-05-21T11:47:18.905Z,26.37
2018-05-21T11:48:18.862Z,26.32
2018-05-21T11:49:18.775Z,26.30
2018-05-21T11:50:18.714Z,26.43
2018-05-21T11:51:18.669Z,26.54
2018-05-21T11:52:18.586Z,26.62
2018-05-21T11:53:18.533Z,26.10
2018-05-21T11:54:18.465Z,26.39
2018-05-21T11:55:18.415Z,26.63
2018-05-21T11:56:18.368Z,26.82
2018-05-21T11:57:18.312Z,26.88
2018-05-21T11:58:18.228Z,26.85
2018-05-21T11:59:18.159Z,26.39
2018-05-21T12:00:18.094Z,26.52
2018-05-21T12:01:18.026Z,26.55
2018-05-21T12:02:17.959Z,26.45
2018-05-21T12:03:17.887Z,26.39
2018-05-21T12:04:17.838Z,25.99
2018-05-21T12:05:17.764Z,25.90
2018-05-21T12:06:17.702Z,26.15
2018-05-21T12:07:17.642Z,26.25
2018-05-21T12:08:17.571Z,26.40
2018-05-21T12:09:17.505Z,26.52
2018-05-21T12:10:17.445Z,26.40
2018-05-21T12:11:17.381Z,26.55
2018-05-21T12:12:17.324Z,26.45
2018-05-21T12:13:17.268Z,26.57
2018-05-21T12:14:17.190Z,26.65
2018-05-21T12:15:17.130Z,26.67
2018-05-21T12:16:17.061Z,26.48
2018-05-21T12:17:16.996Z,26.33
2018-05-21T12:18:16.935Z,26.26
2018-05-21T12:19:16.867Z,26.48
2018-05-21T12:20:16.807Z,26.30
2018-05-21T12:21:16.753Z,26.15
2018-05-21T12:22:16.681Z,26.23
2018-05-21T12:23:16.616Z,26.30
2018-05-21T12:24:16.548Z,26.47
2018-05-21T12:25:16.492Z,26.47
2018-05-21T12:26:16.418Z,26.51
2018-05-21T12:27:16.355Z,26.66
2018-05-21T12:28:16.306Z,26.55
2018-05-21T12:29:16.225Z,26.47
2018-05-21T12:30:16.168Z,26.58
2018-05-21T12:31:16.181Z,26.50
2018-05-21T12:32:16.033Z,26.30
2018-05-21T12:33:15.968Z,26.23
2018-05-21T12:34:15.903Z,26.39
2018-05-21T12:35:15.841Z,26.29
2018-05-21T12:36:15.774Z,26.32
2018-05-21T12:37:15.709Z,26.29
2018-05-21T12:38:15.795Z,26.23
2018-05-21T12:39:15.583Z,26.48
2018-05-21T12:40:15.525Z,26.39
2018-05-21T12:41:15.454Z,26.62
2018-05-21T12:42:15.385Z,26.80
2018-05-21T12:43:15.321Z,26.85
2018-05-21T12:44:15.265Z,26.87
2018-05-21T12:45:15.203Z,26.67
2018-05-21T12:46:15.127Z,26.51
2018-05-21T12:47:15.064Z,26.47
2018-05-21T12:48:14.993Z,26.70
2018-05-21T12:49:14.937Z,26.58
2018-05-21T12:50:14.886Z,26.63
2018-05-21T12:51:14.803Z,26.60